createdAt,value
2018-06-17T00:02:17.913Z,78.29
2018-06-17T00:04:45.189Z,77.31
2018-06-17T00:07:12.443Z,77.22
2018-06-17T00:09:39.628Z,76.93
2018-06-17T00:12:06.826Z,76.71
2018-06-17T00:14:34.039Z,76.85
2018-06-17T00:17:01.293Z,77.79
2018-06-17T00:19:28.439Z,78.21
2018-06-17T00:21:55.561Z,78.57
2018-06-17T00:24:22.801Z,78.83
2018-06-17T00:26:49.920Z,79.03
2018-06-17T00:29:17.062Z,78.75
2018-06-17T00:31:44.225Z,77.78
2018-06-17T00:34:11.411Z,77.07
2018-06-17T00:36:38.568Z,77.31
2018-06-17T00:39:07.915Z,76.99
2018-06-17T00:41:35.053Z,77.72
2018-06-17T00:44:02.198Z,78.32
2018-06-17T00:46:29.386Z,78.50
2018-06-17T00:48:56.497Z,79.34
2018-06-17T00:51:23.680Z,80.23
2018-06-17T00:53:50.832Z,81.09
2018-06-17T00:56:18.028Z,79.74
2018-06-17T00:58:45.202Z,79.44
2018-06-17T01:01:12.317Z,79.59
2018-06-17T01:03:39.494Z,80.47
2018-06-17T01:06:06.689Z,80.20
2018-06-17T01:08:33.849Z,82.22
2018-06-17T01:11:01.036Z,83.49
2018-06-17T01:13:28.215Z,83.36
2018-06-17T01:15:55.390Z,82.80
2018-06-17T01:18:22.581Z,82.15
2018-06-17T01:20:49.777Z,82.09
2018-06-17T01:23:16.913Z,82.25
2018-06-17T01:25:44.067Z,81.56
2018-06-17T01:28:11.221Z,80.86
2018-06-17T01:30:38.394Z,81.63
2018-06-17T01:33:05.525Z,81.87
2018-06-17T01:35:32.692Z,81.20
2018-06-17T01:37:59.817Z,80.93
2018-06-17T01:40:26.980Z,80.68
2018-06-17T01:42:54.073Z,81.72
2018-06-17T01:45:21.264Z,81.42
2018-06-17T01:47:48.449Z,80.92
2018-06-17T01:50:15.598Z,79.55
2018-06-17T01:52:42.789Z,79.06
2018-06-17T01:55:09.984Z,79.73
2018-06-17T01:57:37.121Z,80.40
2018-06-17T02:00:04.746Z,80.55
2018-06-17T02:02:31.893Z,81.27
2018-06-17T02:05:04.669Z,82.21
2018-06-17T02:07:37.601Z,81.76
2018-06-17T02:10:10.637Z,82.01
2018-06-17T02:12:37.772Z,83.07
2018-06-17T02:15:05.029Z,83.66
2018-06-17T02:17:32.256Z,82.85
2018-06-17T02:19:59.372Z,84.01
2018-06-17T02:22:26.521Z,84.37
2018-06-17T02:24:53.665Z,82.86
2018-06-17T02:27:20.800Z,82.59
2018-06-17T02:29:47.948Z,83.56
2018-06-17T02:32:15.116Z,84.48
2018-06-17T02:34:42.311Z,84.47
2018-06-17T02:37:09.675Z,84.79
2018-06-17T02:39:36.868Z,83.70
2018-06-17T02:42:04.173Z,83.26
2018-06-17T02:44:31.363Z,82.69
2018-06-17T02:47:04.180Z,82.90
2018-06-17T02:49:34.337Z,82.17
2018-06-17T02:52:07.093Z,81.60
2018-06-17T02:54:47.249Z,82.18
2018-06-17T02:57:15.680Z,83.99
2018-06-17T02:59:43.506Z,84.55
2018-06-17T03:02:11.209Z,85.98
2018-06-17T03:04:38.466Z,86.17
2018-06-17T03:07:05.672Z,86.15
2018-06-17T03:09:32.831Z,86.26
2018-06-17T03:12:00.030Z,86.21
2018-06-17T03:14:27.173Z,85.48
2018-06-17T03:16:54.506Z,86.72
2018-06-17T03:19:21.952Z,85.80
2018-06-17T03:21:49.292Z,86.16
2018-06-17T03:24:16.547Z,85.81
2018-06-17T03:26:49.458Z,84.54
2018-06-17T03:29:22.261Z,84.15
2018-06-17T03:31:55.270Z,85.69
2018-06-17T03:34:22.429Z,84.24
2018-06-17T03:36:49.580Z,84.05
2018-06-17T03:39:16.725Z,84.69
2018-06-17T03:41:43.878Z,84.83
2018-06-17T03:44:11.057Z,84.78
2018-06-17T03:46:38.248Z,83.68
2018-06-17T03:49:05.616Z,84.02
2018-06-17T03:51:32.782Z,84.94
2018-06-17T03:53:59.932Z,85.37
2018-06-17T03:56:27.225Z,85.38
2018-06-17T03:58:54.401Z,85.18
2018-06-17T04:01:21.622Z,85.42
2018-06-17T04:03:48.805Z,84.50
2018-06-17T04:06:16.003Z,84.31
2018-06-17T04:08:49.945Z,83.16
2018-06-17T04:11:17.116Z,83.34
2018-06-17T04:13:44.273Z,83.33
2018-06-17T04:16:11.428Z,83.45
2018-06-17T04:18:38.571Z,83.86
2018-06-17T04:21:06.074Z,85.53
2018-06-17T04:23:33.266Z,84.22
2018-06-17T04:26:00.443Z,84.24
2018-06-17T04:28:27.577Z,83.94
2018-06-17T04:30:54.716Z,84.08
2018-06-17T04:33:21.908Z,83.35
2018-06-17T04:35:49.090Z,82.24
2018-06-17T04:38:16.350Z,81.65
2018-06-17T04:40:43.513Z,80.44
2018-06-17T04:43:10.721Z,81.97
2018-06-17T04:45:37.882Z,81.13
2018-06-17T04:48:05.054Z,80.21
2018-06-17T04:50:32.245Z,80.25
2018-06-17T04:52:59.374Z,80.21
2018-06-17T04:55:26.513Z,78.74
2018-06-17T04:57:53.673Z,78.49
2018-06-17T05:00:20.836Z,77.44
2018-06-17T05:02:48.176Z,76.91
2018-06-17T05:05:15.452Z,77.12
2018-06-17T05:07:42.612Z,76.48
2018-06-17T05:10:09.772Z,75.80
2018-06-17T05:12:36.958Z,76.56
2018-06-17T05:15:04.938Z,76.60
2018-06-17T05:17:32.136Z,76.30
2018-06-17T05:19:59.282Z,75.58
2018-06-17T05:22:26.480Z,74.78
2018-06-17T05:24:53.653Z,75.09
2018-06-17T05:27:20.854Z,74.05
2018-06-17T05:29:48.062Z,73.73
2018-06-17T05:32:15.214Z,74.06
2018-06-17T05:34:42.369Z,71.94
2018-06-17T05:37:09.550Z,70.95
2018-06-17T05:39:36.713Z,70.88
2018-06-17T05:42:03.906Z,69.83
2018-06-17T05:44:31.104Z,69.74
2018-06-17T05:46:58.334Z,70.65
2018-06-17T05:49:25.520Z,69.97
2018-06-17T05:51:52.719Z,69.44
2018-06-17T05:54:19.886Z,69.32
2018-06-17T05:56:47.076Z,68.28
2018-06-17T05:59:14.280Z,67.37
2018-06-17T06:01:41.502Z,66.56
2018-06-17T06:04:08.812Z,64.81
2018-06-17T06:06:36.812Z,63.64
2018-06-17T06:09:06.792Z,63.16
2018-06-17T06:11:33.980Z,63.71
2018-06-17T06:14:01.190Z,63.33
2018-06-17T06:16:28.393Z,61.92
2018-06-17T06:18:55.605Z,61.28
2018-06-17T06:21:22.814Z,61.92
2018-06-17T06:23:50.035Z,59.86
2018-06-17T06:26:17.248Z,60.91
2018-06-17T06:28:44.462Z,59.55
2018-06-17T06:31:12.018Z,57.87
2018-06-17T06:33:39.229Z,58.83
2018-06-17T06:36:06.405Z,58.23
2018-06-17T06:38:33.626Z,59.79
2018-06-17T06:41:00.822Z,57.75
2018-06-17T06:43:28.056Z,56.99
2018-06-17T06:45:55.209Z,56.99
2018-06-17T06:48:22.371Z,56.23
2018-06-17T06:50:49.577Z,56.85
2018-06-17T06:53:16.765Z,56.45
2018-06-17T06:55:43.968Z,55.89
2018-06-17T06:58:11.193Z,53.52
2018-06-17T07:00:38.393Z,53.89
2018-06-17T07:03:16.981Z,54.86
2018-06-17T07:05:55.885Z,53.93
2018-06-17T07:08:34.460Z,53.57
2018-06-17T07:11:01.624Z,52.86
2018-06-17T07:13:28.814Z,55.12
2018-06-17T07:16:07.372Z,52.56
2018-06-17T07:18:38.749Z,51.36
2018-06-17T07:21:06.372Z,52.04
2018-06-17T07:23:33.553Z,50.96
2018-06-17T07:26:41.620Z,50.37
2018-06-17T07:29:21.189Z,52.27
2018-06-17T07:31:48.409Z,51.79
2018-06-17T07:34:16.030Z,53.03
2018-06-17T07:36:43.320Z,50.91
2018-06-17T07:41:20.930Z,50.89
2018-06-17T07:43:48.183Z,48.90
2018-06-17T07:46:15.404Z,49.31
2018-06-17T07:49:51.625Z,49.08
2018-06-17T07:52:31.602Z,47.15
2018-06-17T07:54:58.847Z,45.85
2018-06-17T07:57:27.254Z,46.05
2018-06-17T07:59:54.450Z,44.76
2018-06-17T08:02:21.632Z,48.84
2018-06-17T08:04:48.882Z,48.39
2018-06-17T08:07:16.063Z,47.40
2018-06-17T08:09:43.261Z,47.58
2018-06-17T08:12:11.085Z,49.95
2018-06-17T08:14:38.380Z,49.90
2018-06-17T08:17:05.602Z,49.63
2018-06-17T08:19:32.777Z,49.90
2018-06-17T08:22:00.614Z,49.06
2018-06-17T08:24:28.146Z,51.04
2018-06-17T08:26:55.379Z,48.20
2018-06-17T08:29:22.597Z,50.24
2018-06-17T08:31:49.760Z,48.28
2018-06-17T08:34:16.924Z,47.38
2018-06-17T08:36:44.151Z,44.49
2018-06-17T08:39:12.532Z,44.47
2018-06-17T08:41:39.753Z,45.09
2018-06-17T08:44:06.933Z,46.31
2018-06-17T08:46:34.386Z,44.83
2018-06-17T08:49:01.558Z,42.89
2018-06-17T08:51:28.760Z,43.66
2018-06-17T08:53:56.455Z,42.74
2018-06-17T08:56:23.881Z,41.58
2018-06-17T08:58:51.055Z,40.80
2018-06-17T09:01:18.269Z,40.31
2018-06-17T09:03:45.433Z,39.29
2018-06-17T09:06:12.792Z,39.22
2018-06-17T09:08:40.045Z,39.15
2018-06-17T09:11:07.241Z,38.54
2018-06-17T09:13:34.444Z,38.18
2018-06-17T09:16:01.645Z,39.28
2018-06-17T09:18:28.801Z,40.62
2018-06-17T09:20:55.990Z,41.76
2018-06-17T09:23:23.097Z,43.14
2018-06-17T09:25:50.257Z,45.10
2018-06-17T09:28:17.430Z,46.92
2018-06-17T09:30:44.593Z,46.92
2018-06-17T09:33:11.848Z,47.71
2018-06-17T09:35:39.056Z,48.69
2018-06-17T09:38:06.318Z,49.04
2018-06-17T09:40:33.520Z,49.95
2018-06-17T09:43:00.754Z,50.38
2018-06-17T09:45:28.301Z,52.13
2018-06-17T09:47:55.551Z,53.70
2018-06-17T09:50:22.785Z,54.62
2018-06-17T09:52:50.153Z,55.72
2018-06-17T09:55:17.293Z,55.39
2018-06-17T09:57:44.533Z,55.71
2018-06-17T10:00:16.633Z,54.07
2018-06-17T10:02:43.892Z,51.84
2018-06-17T10:05:11.084Z,51.43
2018-06-17T10:07:38.349Z,52.22
2018-06-17T10:11:11.941Z,51.52
2018-06-17T10:13:41.190Z,51.67
2018-06-17T10:16:08.767Z,52.19
2018-06-17T10:18:36.040Z,49.42
2018-06-17T10:21:03.350Z,49.25
2018-06-17T10:23:30.536Z,48.74
2018-06-17T10:25:57.749Z,50.10
2018-06-17T10:28:25.947Z,52.49
2018-06-17T10:30:53.790Z,50.06
2018-06-17T10:33:21.269Z,50.22
2018-06-17T10:35:48.510Z,50.29
2018-06-17T10:38:15.744Z,53.85
2018-06-17T10:40:42.988Z,55.43
2018-06-17T10:43:12.548Z,56.23
2018-06-17T10:45:40.204Z,54.99
2018-06-17T10:48:07.653Z,56.21
2018-06-17T10:50:34.858Z,55.14
2018-06-17T10:53:01.981Z,55.23
2018-06-17T10:55:29.141Z,55.97
2018-06-17T10:57:56.328Z,57.49
2018-06-17T11:00:23.528Z,58.14
2018-06-17T11:02:50.688Z,57.58
2018-06-17T11:05:17.904Z,55.54
2018-06-17T11:07:45.016Z,55.34
2018-06-17T11:10:12.141Z,57.58
2018-06-17T11:12:39.311Z,57.26
2018-06-17T11:15:06.444Z,57.36
2018-06-17T11:17:33.599Z,57.19
2018-06-17T11:20:00.759Z,56.18
2018-06-17T11:22:27.894Z,55.94
2018-06-17T11:24:55.075Z,56.42
2018-06-17T11:27:22.791Z,57.00
2018-06-17T11:29:50.772Z,57.75
2018-06-17T11:32:17.988Z,58.57
2018-06-17T11:34:45.146Z,59.40
2018-06-17T11:37:12.345Z,57.87
2018-06-17T11:39:39.513Z,58.38
2018-06-17T11:42:06.712Z,59.22
2018-06-17T11:44:33.989Z,59.29
2018-06-17T11:47:01.105Z,57.14
2018-06-17T11:49:28.276Z,56.06
2018-06-17T11:51:55.494Z,56.17
2018-06-17T11:54:22.632Z,57.52
2018-06-17T11:56:49.793Z,56.99
2018-06-17T11:59:17.210Z,58.86
2018-06-17T12:01:44.413Z,57.21
2018-06-17T12:04:11.582Z,57.90
2018-06-17T12:06:38.845Z,56.33
2018-06-17T12:09:07.521Z,55.85
2018-06-17T12:11:34.683Z,56.44
2018-06-17T12:14:01.829Z,56.69
2018-06-17T12:16:29.027Z,54.56
2018-06-17T12:18:56.241Z,54.34
2018-06-17T12:21:23.387Z,55.71
2018-06-17T12:23:50.553Z,52.47
2018-06-17T12:26:17.762Z,54.00
2018-06-17T12:28:44.987Z,53.52
2018-06-17T12:31:12.164Z,50.89
2018-06-17T12:33:39.343Z,52.46
2018-06-17T12:36:07.513Z,53.12
2018-06-17T12:38:34.672Z,52.84
2018-06-17T12:41:01.852Z,50.83
2018-06-17T12:43:29.044Z,50.70
2018-06-17T12:45:56.198Z,51.97
2018-06-17T12:48:23.375Z,50.91
2018-06-17T12:50:50.576Z,49.25
2018-06-17T12:53:17.766Z,51.14
2018-06-17T12:55:44.989Z,52.64
2018-06-17T12:58:12.145Z,49.74
2018-06-17T13:00:39.350Z,48.49
2018-06-17T13:03:06.554Z,47.50
2018-06-17T13:05:33.761Z,48.90
2018-06-17T13:08:01.037Z,49.60
2018-06-17T13:10:28.193Z,49.38
2018-06-17T13:12:55.403Z,48.21
2018-06-17T13:15:22.751Z,47.12
2018-06-17T13:17:50.019Z,48.97
2018-06-17T13:20:17.339Z,50.16
2018-06-17T13:22:44.514Z,48.56
2018-06-17T13:25:11.669Z,45.83
2018-06-17T13:27:38.877Z,42.75
2018-06-17T13:30:06.140Z,43.69
2018-06-17T13:32:33.474Z,44.39
2018-06-17T13:35:00.723Z,43.38
2018-06-17T13:37:27.905Z,44.06
2018-06-17T13:39:55.037Z,44.19
2018-06-17T13:42:22.271Z,44.10
2018-06-17T13:44:49.572Z,44.17
2018-06-17T13:47:16.806Z,44.98
2018-06-17T13:49:44.034Z,44.73
2018-06-17T13:52:11.398Z,47.41
2018-06-17T13:54:38.580Z,47.02
2018-06-17T13:57:05.752Z,47.27
2018-06-17T13:59:32.942Z,46.44
2018-06-17T14:02:00.222Z,47.75
2018-06-17T14:04:27.510Z,45.42
2018-06-17T14:06:54.855Z,46.05
2018-06-17T14:09:22.115Z,46.15
2018-06-17T14:11:49.428Z,43.15
2018-06-17T14:14:16.627Z,44.01
2018-06-17T14:16:43.837Z,44.43
2018-06-17T14:19:11.149Z,45.44
2018-06-17T14:21:38.464Z,47.25
2018-06-17T14:24:05.678Z,46.23
2018-06-17T14:26:32.823Z,46.74
2018-06-17T14:28:59.977Z,46.93
2018-06-17T14:31:27.206Z,45.32
2018-06-17T14:33:54.446Z,46.15
2018-06-17T14:36:21.640Z,46.76
2018-06-17T14:38:48.864Z,46.85
2018-06-17T14:41:16.920Z,46.91
2018-06-17T14:43:49.909Z,47.94
2018-06-17T14:47:23.536Z,46.99
2018-06-17T14:49:56.170Z,47.08
2018-06-17T14:52:25.699Z,47.87
2018-06-17T14:54:54.667Z,49.61
2018-06-17T14:57:21.914Z,49.01
2018-06-17T14:59:49.077Z,48.10
2018-06-17T15:02:16.297Z,48.61
2018-06-17T15:04:43.488Z,47.26
2018-06-17T15:07:10.712Z,47.83
2018-06-17T15:09:37.852Z,48.65
2018-06-17T15:12:05.088Z,49.81
2018-06-17T15:14:32.723Z,49.06
2018-06-17T15:16:59.990Z,46.95
2018-06-17T15:19:27.170Z,46.43
2018-06-17T15:21:54.403Z,48.11
2018-06-17T15:24:21.587Z,48.88
2018-06-17T15:26:48.785Z,47.57
2018-06-17T15:29:15.985Z,47.37
2018-06-17T15:31:48.889Z,47.54
2018-06-17T15:34:21.809Z,48.50
2018-06-17T15:36:54.653Z,48.47
2018-06-17T15:39:27.424Z,47.79
2018-06-17T15:41:54.613Z,49.32
2018-06-17T15:44:21.825Z,46.48
2018-06-17T15:46:48.997Z,47.08
2018-06-17T15:49:16.216Z,46.83
2018-06-17T15:51:43.417Z,46.50
2018-06-17T15:54:10.595Z,45.07
2018-06-17T15:56:37.752Z,45.31
2018-06-17T15:59:04.945Z,46.19
2018-06-17T16:01:32.172Z,45.50
2018-06-17T16:03:59.405Z,44.26
2018-06-17T16:06:26.639Z,45.37
2018-06-17T16:08:53.808Z,45.70
2018-06-17T16:11:20.972Z,44.96
2018-06-17T16:13:53.868Z,44.13
2018-06-17T16:16:26.840Z,43.76
2018-06-17T16:18:59.802Z,46.74
2018-06-17T16:21:27.061Z,45.83
2018-06-17T16:23:54.240Z,46.90
2018-06-17T16:26:21.419Z,45.82
2018-06-17T16:28:48.599Z,45.94
2018-06-17T16:31:15.798Z,45.94
2018-06-17T16:33:43.053Z,47.06
2018-06-17T16:36:10.208Z,47.82
2018-06-17T16:38:37.317Z,46.06
2018-06-17T16:41:04.537Z,48.49
2018-06-17T16:43:31.714Z,48.93
2018-06-17T16:45:58.952Z,47.04
2018-06-17T16:48:26.145Z,48.65
2018-06-17T16:50:58.949Z,47.37
2018-06-17T16:53:31.723Z,48.20
2018-06-17T16:56:04.710Z,47.85
2018-06-17T16:58:37.759Z,46.97
2018-06-17T17:01:05.013Z,46.67
2018-06-17T17:03:32.233Z,48.32
2018-06-17T17:05:59.452Z,48.93
2018-06-17T17:08:26.609Z,46.91
2018-06-17T17:10:53.837Z,48.00
2018-06-17T17:13:21.039Z,48.50
2018-06-17T17:15:48.273Z,49.34
2018-06-17T17:18:15.455Z,49.32
2018-06-17T17:20:42.667Z,47.67
2018-06-17T17:23:09.873Z,48.34
2018-06-17T17:25:37.009Z,48.04
2018-06-17T17:28:04.236Z,46.81
2018-06-17T17:30:31.381Z,47.09
2018-06-17T17:33:04.381Z,47.09
2018-06-17T17:36:41.192Z,47.01
2018-06-17T17:39:14.092Z,47.07
2018-06-17T17:41:41.366Z,46.85
2018-06-17T17:44:08.622Z,48.35
2018-06-17T17:46:41.572Z,46.87
2018-06-17T17:49:11.994Z,46.95
2018-06-17T17:51:39.259Z,47.95
2018-06-17T17:54:06.931Z,46.87
2018-06-17T17:56:34.108Z,46.77
2018-06-17T17:59:01.276Z,47.20
2018-06-17T18:01:28.504Z,46.94
2018-06-17T18:03:55.684Z,48.29
2018-06-17T18:06:22.866Z,46.63
2018-06-17T18:08:50.073Z,47.96
2018-06-17T18:11:17.382Z,46.80
2018-06-17T18:13:44.556Z,47.88
2018-06-17T18:16:11.750Z,47.36
2018-06-17T18:18:38.954Z,47.70
2018-06-17T18:21:06.885Z,48.02
2018-06-17T18:23:34.144Z,47.59
2018-06-17T18:26:07.144Z,47.75
2018-06-17T18:28:40.030Z,47.95
2018-06-17T18:31:07.228Z,48.47
2018-06-17T18:33:40.145Z,49.23
2018-06-17T18:36:13.042Z,48.40
2018-06-17T18:38:41.512Z,49.17
2018-06-17T18:41:09.505Z,48.56
2018-06-17T18:43:36.668Z,50.27
2018-06-17T18:46:03.985Z,50.77
2018-06-17T18:48:31.133Z,51.05
2018-06-17T18:50:58.841Z,50.97
2018-06-17T18:53:26.047Z,51.72
2018-06-17T18:55:53.624Z,52.93
2018-06-17T18:58:20.933Z,54.05
2018-06-17T19:00:48.855Z,52.67
2018-06-17T19:03:16.122Z,52.78
2018-06-17T19:05:43.391Z,52.88
2018-06-17T19:08:16.412Z,52.60
2018-06-17T19:10:49.130Z,52.41
2018-06-17T19:13:22.092Z,54.54
2018-06-17T19:15:54.984Z,55.12
2018-06-17T19:18:22.229Z,58.16
2018-06-17T19:20:49.624Z,57.80
2018-06-17T19:23:16.975Z,58.31
2018-06-17T19:25:44.153Z,60.09
2018-06-17T19:28:11.391Z,59.98
2018-06-17T19:30:38.539Z,59.95
2018-06-17T19:33:05.958Z,59.36
2018-06-17T19:35:33.197Z,59.87
2018-06-17T19:38:00.396Z,60.89
2018-06-17T19:40:27.819Z,62.79
2018-06-17T19:42:55.314Z,61.97
2018-06-17T19:45:22.484Z,63.04
2018-06-17T19:47:49.699Z,62.53
2018-06-17T19:50:22.643Z,61.50
2018-06-17T19:52:55.633Z,61.07
2018-06-17T19:55:28.525Z,60.73
2018-06-17T19:58:01.594Z,60.60
2018-06-17T20:00:31.281Z,61.62
2018-06-17T20:02:58.465Z,60.43
2018-06-17T20:05:25.605Z,61.17
2018-06-17T20:07:52.817Z,63.40
2018-06-17T20:10:20.024Z,63.30
2018-06-17T20:12:47.222Z,64.28
2018-06-17T20:15:14.417Z,64.99
2018-06-17T20:17:41.581Z,64.09
2018-06-17T20:20:08.724Z,62.39
2018-06-17T20:22:35.915Z,63.26
2018-06-17T20:25:03.350Z,63.42
2018-06-17T20:27:30.537Z,63.95
2018-06-17T20:29:57.739Z,65.50
2018-06-17T20:32:30.573Z,66.53
2018-06-17T20:35:03.363Z,67.78
2018-06-17T20:37:36.342Z,68.12
2018-06-17T20:40:09.448Z,67.87
2018-06-17T20:42:42.164Z,66.17
2018-06-17T20:45:09.303Z,64.75
2018-06-17T20:47:36.516Z,65.12
2018-06-17T20:50:03.987Z,65.36
2018-06-17T20:52:31.258Z,65.72
2018-06-17T20:54:58.494Z,66.77
2018-06-17T20:57:25.712Z,67.50
2018-06-17T20:59:52.880Z,68.09
2018-06-17T21:02:20.042Z,69.35
2018-06-17T21:04:47.233Z,68.25
2018-06-17T21:07:14.430Z,67.47
2018-06-17T21:09:41.560Z,68.28
2018-06-17T21:12:08.726Z,69.52
2018-06-17T21:14:35.888Z,70.06
2018-06-17T21:17:03.050Z,70.71
2018-06-17T21:19:35.859Z,69.69
2018-06-17T21:22:08.724Z,69.10
2018-06-17T21:24:41.600Z,68.90
2018-06-17T21:27:14.266Z,68.28
2018-06-17T21:29:41.499Z,68.73
2018-06-17T21:32:08.639Z,68.29
2018-06-17T21:34:35.825Z,69.13
2018-06-17T21:37:02.988Z,67.80
2018-06-17T21:39:30.176Z,67.82
2018-06-17T21:41:57.320Z,69.41
2018-06-17T21:44:24.452Z,69.72
2018-06-17T21:46:51.615Z,69.33
2018-06-17T21:49:18.861Z,68.56
2018-06-17T21:51:46.002Z,68.78
2018-06-17T21:54:13.173Z,69.13
2018-06-17T21:56:40.454Z,70.37
2018-06-17T21:59:07.592Z,70.13
2018-06-17T22:01:34.751Z,70.35
2018-06-17T22:04:07.681Z,70.15
2018-06-17T22:06:34.881Z,69.41
2018-06-17T22:09:07.615Z,69.00
2018-06-17T22:11:40.572Z,69.50
2018-06-17T22:14:13.309Z,70.65
2018-06-17T22:16:46.156Z,70.82
2018-06-17T22:19:13.291Z,71.60
2018-06-17T22:21:40.440Z,71.10
2018-06-17T22:24:07.642Z,71.07
2018-06-17T22:26:34.842Z,71.67
2018-06-17T22:29:02.086Z,71.07
2018-06-17T22:31:29.316Z,71.24
2018-06-17T22:33:56.457Z,71.00
2018-06-17T22:36:23.594Z,71.51
2018-06-17T22:38:50.734Z,71.42
2018-06-17T22:41:17.857Z,72.28
2018-06-17T22:43:44.956Z,71.43
2018-06-17T22:46:12.131Z,71.25
2018-06-17T22:48:39.257Z,72.13
2018-06-17T22:51:06.468Z,74.07
2018-06-17T22:53:45.055Z,73.20
2018-06-17T22:56:18.185Z,74.62
2018-06-17T22:58:51.001Z,76.35
2018-06-17T23:02:24.608Z,77.20
2018-06-17T23:04:57.305Z,74.61
2018-06-17T23:07:30.089Z,74.03
2018-06-17T23:09:57.269Z,73.26
2018-06-17T23:12:24.425Z,73.11
2018-06-17T23:14:51.569Z,73.67
2018-06-17T23:17:18.733Z,74.71
2018-06-17T23:19:45.874Z,74.21
2018-06-17T23:22:13.076Z,74.33
2018-06-17T23:24:40.204Z,75.92
2018-06-17T23:27:07.350Z,75.70
2018-06-17T23:29:34.484Z,76.31
2018-06-17T23:32:01.643Z,75.58
2018-06-17T23:34:28.757Z,75.32
2018-06-17T23:36:55.908Z,75.36
2018-06-17T23:39:23.046Z,74.64
2018-06-17T23:41:50.220Z,75.96
2018-06-17T23:44:17.393Z,75.14
2018-06-17T23:46:50.321Z,75.24
2018-06-17T23:49:23.024Z,76.27
2018-06-17T23:51:55.997Z,77.04
2018-06-17T23:54:28.968Z,76.45
2018-06-17T23:56:56.177Z,76.03
2018-06-17T23:59:23.280Z,75.67
